»·PEaware :: N348WT KPSP-KVCV

N348WT :: KPSP-KVCV

FLIGHT INFORMATION

Flight Status: Arrived
Operator: Privately registered:
United States
More flights under this callsign
Pilot: Gerald G. (23948)
Aircraft: Unknown
(LEG2)
More flights by this aircraft type
Origin: KPSP Palm Springs Intl
United States
Destination: KVCV Socal Logistics
United States
More flights between these airports :: More routes between these airports
Route: +CATH1 PSP V386 APLES
File this flight plan on PilotEdge
Remarks:
Altitude:
(Current/Filed)
11,000ft
Speed:
(Current/Filed)
170kts
Departed: 20-Nov-20 08:18 PM
Arrived: 20-Nov-20 09:00 PM
Distance/Time
Traveled:
63nm/0:42
Distance/Time
To Go:
Arrived

Flight Plot

Page will automatically refresh every two minutes.


Map Options




Map Legend


Flown Route
Filed Route
Departure Airport
Arrival Airport
Navaid (VOR, NDB)
Fix

Horizontal Profiles

Position Reports

Time Latitude Longitude Heading Altitude Ground
Speed
20-Nov-20 19:48 33.823081 -116.505814 101 414ft 0kts
20-Nov-20 19:49 33.823081 -116.505814 101 414ft 0kts
20-Nov-20 19:50 33.823081 -116.505814 101 414ft 0kts
20-Nov-20 19:51 33.823081 -116.505814 101 414ft 0kts
20-Nov-20 19:52 33.823081 -116.505814 101 414ft 0kts
20-Nov-20 19:53 33.823081 -116.505814 101 414ft 0kts
20-Nov-20 19:54 33.823081 -116.505814 101 414ft 0kts
20-Nov-20 19:55 33.823081 -116.505814 101 414ft 0kts
20-Nov-20 19:56 33.823081 -116.505814 101 414ft 0kts
20-Nov-20 19:57 33.823081 -116.505814 101 414ft 0kts
20-Nov-20 19:58 33.823081 -116.505814 101 414ft 0kts
20-Nov-20 19:59 33.823081 -116.505814 101 414ft 0kts
20-Nov-20 20:00 33.823081 -116.505814 101 414ft 0kts
20-Nov-20 20:01 33.823081 -116.505814 101 414ft 0kts
20-Nov-20 20:02 33.823081 -116.505814 101 414ft 0kts
20-Nov-20 20:03 33.823081 -116.505814 101 414ft 0kts
20-Nov-20 20:04 33.823081 -116.505814 101 414ft 0kts
20-Nov-20 20:05 33.823081 -116.505814 101 414ft 0kts
20-Nov-20 20:06 33.823081 -116.505814 101 414ft 0kts
20-Nov-20 20:07 33.823081 -116.505814 101 414ft 0kts
20-Nov-20 20:08 33.823081 -116.505814 101 414ft 0kts
20-Nov-20 20:09 33.823081 -116.505814 101 414ft 0kts
20-Nov-20 20:10 33.823081 -116.505814 101 414ft 0kts
20-Nov-20 20:11 33.823081 -116.505814 101 414ft 0kts
20-Nov-20 20:12 33.823081 -116.505814 101 414ft 0kts
20-Nov-20 20:13 33.823070 -116.505310 88 414ft 6kts
20-Nov-20 20:14 33.821510 -116.502348 152 407ft 18kts
20-Nov-20 20:15 33.818465 -116.499042 82 399ft 0kts
20-Nov-20 20:16 33.818465 -116.499042 82 399ft 0kts
20-Nov-20 20:17 33.829277 -116.508361 318 624ft 130kts
20-Nov-20 20:18 33.863342 -116.541296 320 2144ft 173kts
20-Nov-20 20:19 33.899673 -116.582353 353 3726ft 177kts
20-Nov-20 20:20 33.910528 -116.531374 113 5191ft 181kts
20-Nov-20 20:21 33.888843 -116.476637 115 6493ft 180kts
20-Nov-20 20:22 33.867107 -116.422992 116 7795ft 177kts
20-Nov-20 20:23 33.844541 -116.369904 116 9098ft 183kts
20-Nov-20 20:24 33.820852 -116.314305 117 10279ft 191kts
20-Nov-20 20:25 33.795074 -116.254394 124 10848ft 218kts
20-Nov-20 20:26 33.757930 -116.281095 289 10851ft 233kts
20-Nov-20 20:27 33.800227 -116.340942 313 10853ft 238kts
20-Nov-20 20:28 33.846003 -116.399164 313 10853ft 239kts
20-Nov-20 20:29 33.879909 -116.462507 348 10851ft 238kts
20-Nov-20 20:30 33.951628 -116.471012 355 10853ft 239kts
20-Nov-20 20:31 34.020766 -116.488570 342 10853ft 239kts
20-Nov-20 20:32 34.087494 -116.514672 342 10853ft 240kts
20-Nov-20 20:33 34.155114 -116.541180 342 10853ft 240kts
20-Nov-20 20:34 34.222674 -116.567714 342 10853ft 240kts
20-Nov-20 20:35 34.287375 -116.593163 342 10853ft 240kts
20-Nov-20 20:36 34.351167 -116.618260 342 10853ft 239kts
20-Nov-20 20:37 34.414545 -116.643258 342 10853ft 239kts
20-Nov-20 20:38 34.479456 -116.668905 341 10853ft 239kts
20-Nov-20 20:39 34.508132 -116.736477 278 10853ft 238kts
20-Nov-20 20:40 34.516494 -116.815895 276 10853ft 237kts
20-Nov-20 20:41 34.524217 -116.895544 276 10853ft 237kts
20-Nov-20 20:42 34.531893 -116.975238 276 10755ft 239kts
20-Nov-20 20:43 34.539529 -117.055090 276 10752ft 235kts
20-Nov-20 20:45 34.546915 -117.132794 276 9550ft 228kts
20-Nov-20 20:46 34.528466 -117.189565 173 8030ft 220kts
20-Nov-20 20:47 34.517835 -117.126181 74 7753ft 231kts
20-Nov-20 20:48 34.560817 -117.090851 321 7750ft 237kts
20-Nov-20 20:49 34.610217 -117.148508 316 7754ft 250kts
20-Nov-20 20:50 34.678938 -117.189536 345 7415ft 259kts
20-Nov-20 20:51 34.755917 -117.213255 345 6966ft 242kts
20-Nov-20 20:52 34.798809 -117.267577 271 6438ft 229kts
20-Nov-20 20:53 34.798621 -117.339585 269 5581ft 159kts
20-Nov-20 20:54 34.787676 -117.385247 201 4832ft 145kts
20-Nov-20 20:55 34.746141 -117.388034 179 4057ft 135kts
20-Nov-20 20:56 34.706316 -117.387627 179 4053ft 134kts
20-Nov-20 20:57 34.665592 -117.387219 179 3708ft 120kts
20-Nov-20 20:58 34.632394 -117.386893 179 3076ft 118kts
20-Nov-20 20:59 34.603569 -117.386603 178 2842ft 55kts
20-Nov-20 20:59 34.596178 -117.385359 149 2856ft 7kts

Navigation Log

Ident Type
Flight plan parsing failed, navigation log unavailable